PWSweather.com
Personal Weather Stations
Station Observations
BREEJEDURP
'sGravenzande, WestlandNL

'sGravenzandeWestlandNL

Lat: 52.00095260000001, Lon: 4.174256600000035

Elevation: 3

Station Type: Davis Vantage Pro2 Plus

www.breejedurp.nl

High Low Average
Temperature 38.7°F3.7°C 31.1°F-0.5°C 34.3°F1.3°C
Dew Point 33.0°F0.6°C 26.7°F-2.9°C 29.8°F-1.2°C
Winds 13.0 mph 20.9 kmh 2.0 mph 3.2 kmh 7.0 mph E11.3 kmh E
Wind Gusts 23.0 mph37.0 kmh 3.0 mph4.8 kmh 12.0 mph19.3 kmh
Humidity 87% 79% 83%
Pressure 30.35 in1027.8 mb 30.04 in1017.3 mb -
Precipitation 0.00 in0.0 mm - -
Hour Temp Dew Point Humidity Winds Wind Gusts Pressure Precip Precip Rate Daily Precip Total
12:04 AM 31.3°F-0.4°C 26.7°F-2.9°C 83% 10.0 mph ENE16.1 kmh ENE 15.0 mph24.1 kmh 30.35 in1027.8 mb 0.00 in0.0 mm 0.00 in0.0 mm 0.00 in0.0 mm
12:09 AM 31.3°F-0.4°C 26.7°F-2.9°C 83% 9.0 mph ENE14.5 kmh ENE 15.0 mph24.1 kmh 30.35 in1027.8 mb 0.00 in0.0 mm 0.00 in0.0 mm 0.00 in0.0 mm
12:14 AM 31.3°F-0.4°C 26.7°F-2.9°C 83% 6.0 mph NE9.7 kmh NE 10.0 mph16.1 kmh 30.35 in1027.8 mb 0.00 in0.0 mm 0.00 in0.0 mm 0.00 in0.0 mm
12:19 AM 31.3°F-0.4°C 26.7°F-2.9°C 83% 10.0 mph ENE16.1 kmh ENE 18.0 mph29.0 kmh 30.35 in1027.8 mb 0.00 in0.0 mm 0.00 in0.0 mm 0.00 in0.0 mm
12:24 AM 31.3°F-0.4°C 26.7°F-2.9°C 83% 9.0 mph ENE14.5 kmh ENE 13.0 mph20.9 kmh 30.35 in1027.8 mb 0.00 in0.0 mm 0.00 in0.0 mm 0.00 in0.0 mm
12:29 AM 31.3°F-0.4°C 26.7°F-2.9°C 83% 10.0 mph ENE16.1 kmh ENE 15.0 mph24.1 kmh 30.35 in1027.8 mb 0.00 in0.0 mm 0.00 in0.0 mm 0.00 in0.0 mm
12:34 AM 31.3°F-0.4°C 26.7°F-2.9°C 83% 7.0 mph ENE11.3 kmh ENE 12.0 mph19.3 kmh 30.35 in1027.8 mb 0.00 in0.0 mm 0.00 in0.0 mm 0.00 in0.0 mm
12:39 AM 31.3°F-0.4°C 26.7°F-2.9°C 83% 9.0 mph ENE14.5 kmh ENE 16.0 mph25.7 kmh 30.35 in1027.8 mb 0.00 in0.0 mm 0.00 in0.0 mm 0.00 in0.0 mm
12:44 AM 31.3°F-0.4°C 26.7°F-2.9°C 83% 12.0 mph ENE19.3 kmh ENE 16.0 mph25.7 kmh 30.35 in1027.8 mb 0.00 in0.0 mm 0.00 in0.0 mm 0.00 in0.0 mm
12:49 AM 31.3°F-0.4°C 26.7°F-2.9°C 83% 8.0 mph NE12.9 kmh NE 15.0 mph24.1 kmh 30.35 in1027.8 mb 0.00 in0.0 mm 0.00 in0.0 mm 0.00 in0.0 mm
12:54 AM 31.3°F-0.4°C 26.7°F-2.9°C 83% 11.0 mph NE17.7 kmh NE 18.0 mph29.0 kmh 30.35 in1027.8 mb 0.00 in0.0 mm 0.00 in0.0 mm 0.00 in0.0 mm
12:59 AM 31.5°F-0.3°C 26.9°F-2.8°C 83% 8.0 mph NE12.9 kmh NE 14.0 mph22.5 kmh 30.34 in1027.4 mb 0.00 in0.0 mm 0.00 in0.0 mm 0.00 in0.0 mm
01:04 AM 31.5°F-0.3°C 26.9°F-2.8°C 83% 10.0 mph NE16.1 kmh NE 19.0 mph30.6 kmh 30.35 in1027.8 mb 0.00 in0.0 mm 0.00 in0.0 mm 0.00 in0.0 mm
01:09 AM 31.5°F-0.3°C 26.9°F-2.8°C 83% 7.0 mph ENE11.3 kmh ENE 14.0 mph22.5 kmh 30.35 in1027.8 mb 0.00 in0.0 mm 0.00 in0.0 mm 0.00 in0.0 mm
01:14 AM 31.5°F-0.3°C 27.2°F-2.7°C 84% 8.0 mph ENE12.9 kmh ENE 14.0 mph22.5 kmh 30.34 in1027.4 mb 0.00 in0.0 mm 0.00 in0.0 mm 0.00 in0.0 mm
01:19 AM 31.5°F-0.3°C 27.2°F-2.7°C 84% 6.0 mph NE9.7 kmh NE 9.0 mph14.5 kmh 30.34 in1027.4 mb 0.00 in0.0 mm 0.00 in0.0 mm 0.00 in0.0 mm
01:24 AM 31.5°F-0.3°C 27.2°F-2.7°C 84% 7.0 mph ENE11.3 kmh ENE 12.0 mph19.3 kmh 30.34 in1027.4 mb 0.00 in0.0 mm 0.00 in0.0 mm 0.00 in0.0 mm
01:29 AM 31.5°F-0.3°C 27.2°F-2.7°C 84% 8.0 mph NE12.9 kmh NE 15.0 mph24.1 kmh 30.34 in1027.4 mb 0.00 in0.0 mm 0.00 in0.0 mm 0.00 in0.0 mm
01:34 AM 31.5°F-0.3°C 27.2°F-2.7°C 84% 12.0 mph ENE19.3 kmh ENE 17.0 mph27.4 kmh 30.33 in1027.1 mb 0.00 in0.0 mm 0.00 in0.0 mm 0.00 in0.0 mm
01:39 AM 31.5°F-0.3°C 27.2°F-2.7°C 84% 7.0 mph ENE11.3 kmh ENE 11.0 mph17.7 kmh 30.33 in1027.1 mb 0.00 in0.0 mm 0.00 in0.0 mm 0.00 in0.0 mm
01:44 AM 31.5°F-0.3°C 27.2°F-2.7°C 84% 13.0 mph ENE20.9 kmh ENE 19.0 mph30.6 kmh 30.33 in1027.1 mb 0.00 in0.0 mm 0.00 in0.0 mm 0.00 in0.0 mm
01:49 AM 31.5°F-0.3°C 27.2°F-2.7°C 84% 12.0 mph NE19.3 kmh NE 17.0 mph27.4 kmh 30.33 in1027.1 mb 0.00 in0.0 mm 0.00 in0.0 mm 0.00 in0.0 mm
01:54 AM 31.5°F-0.3°C 27.5°F-2.5°C 85% 9.0 mph NE14.5 kmh NE 13.0 mph20.9 kmh 30.32 in1026.8 mb 0.00 in0.0 mm 0.00 in0.0 mm 0.00 in0.0 mm
01:59 AM 31.5°F-0.3°C 27.2°F-2.7°C 84% 9.0 mph ENE14.5 kmh ENE 18.0 mph29.0 kmh 30.32 in1026.8 mb 0.00 in0.0 mm 0.00 in0.0 mm 0.00 in0.0 mm
02:03 AM 31.5°F-0.3°C 27.5°F-2.5°C 85% 9.0 mph ENE14.5 kmh ENE 23.0 mph37.0 kmh 30.32 in1026.8 mb 0.00 in0.0 mm 0.00 in0.0 mm 0.00 in0.0 mm
02:09 AM 31.5°F-0.3°C 27.5°F-2.5°C 85% 10.0 mph ENE16.1 kmh ENE 16.0 mph25.7 kmh 30.32 in1026.8 mb 0.00 in0.0 mm 0.00 in0.0 mm 0.00 in0.0 mm
02:14 AM 31.5°F-0.3°C 27.5°F-2.5°C 85% 11.0 mph ENE17.7 kmh ENE 17.0 mph27.4 kmh 30.32 in1026.8 mb 0.00 in0.0 mm 0.00 in0.0 mm 0.00 in0.0 mm
02:19 AM 31.5°F-0.3°C 27.5°F-2.5°C 85% 12.0 mph NE19.3 kmh NE 17.0 mph27.4 kmh 30.32 in1026.8 mb 0.00 in0.0 mm 0.00 in0.0 mm 0.00 in0.0 mm
02:24 AM 31.5°F-0.3°C 27.5°F-2.5°C 85% 11.0 mph ENE17.7 kmh ENE 17.0 mph27.4 kmh 30.32 in1026.8 mb 0.00 in0.0 mm 0.00 in0.0 mm 0.00 in0.0 mm
02:29 AM 31.5°F-0.3°C 27.5°F-2.5°C 85% 8.0 mph NE12.9 kmh NE 14.0 mph22.5 kmh 30.32 in1026.8 mb 0.00 in0.0 mm 0.00 in0.0 mm 0.00 in0.0 mm
02:34 AM 31.6°F-0.2°C 27.7°F-2.4°C 85% 11.0 mph ENE17.7 kmh ENE 18.0 mph29.0 kmh 30.32 in1026.8 mb 0.00 in0.0 mm 0.00 in0.0 mm 0.00 in0.0 mm
02:39 AM 31.5°F-0.3°C 27.5°F-2.5°C 85% 8.0 mph NE12.9 kmh NE 14.0 mph22.5 kmh 30.32 in1026.8 mb 0.00 in0.0 mm 0.00 in0.0 mm 0.00 in0.0 mm
02:44 AM 31.5°F-0.3°C 27.5°F-2.5°C 85% 10.0 mph ENE16.1 kmh ENE 14.0 mph22.5 kmh 30.32 in1026.8 mb 0.00 in0.0 mm 0.00 in0.0 mm 0.00 in0.0 mm
02:49 AM 31.6°F-0.2°C 27.7°F-2.4°C 85% 11.0 mph NE17.7 kmh NE 16.0 mph25.7 kmh 30.32 in1026.8 mb 0.00 in0.0 mm 0.00 in0.0 mm 0.00 in0.0 mm
02:54 AM 31.6°F-0.2°C 27.7°F-2.4°C 85% 7.0 mph ENE11.3 kmh ENE 11.0 mph17.7 kmh 30.32 in1026.8 mb 0.00 in0.0 mm 0.00 in0.0 mm 0.00 in0.0 mm
02:59 AM 31.6°F-0.2°C 27.7°F-2.4°C 85% 8.0 mph ENE12.9 kmh ENE 15.0 mph24.1 kmh 30.32 in1026.8 mb 0.00 in0.0 mm 0.00 in0.0 mm 0.00 in0.0 mm
03:04 AM 31.6°F-0.2°C 27.7°F-2.4°C 85% 10.0 mph ENE16.1 kmh ENE 15.0 mph24.1 kmh 30.32 in1026.8 mb 0.00 in0.0 mm 0.00 in0.0 mm 0.00 in0.0 mm
03:09 AM 31.8°F-0.1°C 27.8°F-2.3°C 85% 10.0 mph ENE16.1 kmh ENE 14.0 mph22.5 kmh 30.32 in1026.8 mb 0.00 in0.0 mm 0.00 in0.0 mm 0.00 in0.0 mm
03:14 AM 31.8°F-0.1°C 27.8°F-2.3°C 85% 11.0 mph ENE17.7 kmh ENE 18.0 mph29.0 kmh 30.32 in1026.8 mb 0.00 in0.0 mm 0.00 in0.0 mm 0.00 in0.0 mm
03:19 AM 31.8°F-0.1°C 27.8°F-2.3°C 85% 9.0 mph ENE14.5 kmh ENE 19.0 mph30.6 kmh 30.32 in1026.8 mb 0.00 in0.0 mm 0.00 in0.0 mm 0.00 in0.0 mm
03:24 AM 31.8°F-0.1°C 27.8°F-2.3°C 85% 12.0 mph ENE19.3 kmh ENE 16.0 mph25.7 kmh 30.32 in1026.8 mb 0.00 in0.0 mm 0.00 in0.0 mm 0.00 in0.0 mm
03:29 AM 31.8°F-0.1°C 27.8°F-2.3°C 85% 11.0 mph ENE17.7 kmh ENE 16.0 mph25.7 kmh 30.32 in1026.8 mb 0.00 in0.0 mm 0.00 in0.0 mm 0.00 in0.0 mm
03:34 AM 31.8°F-0.1°C 27.8°F-2.3°C 85% 10.0 mph ENE16.1 kmh ENE 16.0 mph25.7 kmh 30.32 in1026.8 mb 0.00 in0.0 mm 0.00 in0.0 mm 0.00 in0.0 mm
03:39 AM 32.0°F0.0°C 28.0°F-2.2°C 85% 11.0 mph NE17.7 kmh NE 18.0 mph29.0 kmh 30.32 in1026.8 mb 0.00 in0.0 mm 0.00 in0.0 mm 0.00 in0.0 mm
03:44 AM 32.0°F0.0°C 28.0°F-2.2°C 85% 6.0 mph ENE9.7 kmh ENE 12.0 mph19.3 kmh 30.32 in1026.8 mb 0.00 in0.0 mm 0.00 in0.0 mm 0.00 in0.0 mm
03:49 AM 32.0°F0.0°C 28.0°F-2.2°C 85% 9.0 mph ENE14.5 kmh ENE 13.0 mph20.9 kmh 30.32 in1026.8 mb 0.00 in0.0 mm 0.00 in0.0 mm 0.00 in0.0 mm
03:54 AM 32.0°F0.0°C 28.0°F-2.2°C 85% 11.0 mph ENE17.7 kmh ENE 16.0 mph25.7 kmh 30.32 in1026.8 mb 0.00 in0.0 mm 0.00 in0.0 mm 0.00 in0.0 mm
03:59 AM 32.0°F0.0°C 28.0°F-2.2°C 85% 11.0 mph ENE17.7 kmh ENE 14.0 mph22.5 kmh 30.32 in1026.8 mb 0.00 in0.0 mm 0.00 in0.0 mm 0.00 in0.0 mm
04:04 AM 32.0°F0.0°C 28.0°F-2.2°C 85% 4.0 mph E6.4 kmh E 8.0 mph12.9 kmh 30.32 in1026.8 mb 0.00 in0.0 mm 0.00 in0.0 mm 0.00 in0.0 mm
04:09 AM 32.0°F0.0°C 28.0°F-2.2°C 85% 8.0 mph ENE12.9 kmh ENE 13.0 mph20.9 kmh 30.32 in1026.8 mb 0.00 in0.0 mm 0.00 in0.0 mm 0.00 in0.0 mm
04:14 AM 32.0°F0.0°C 28.0°F-2.2°C 85% 8.0 mph E12.9 kmh E 12.0 mph19.3 kmh 30.32 in1026.8 mb 0.00 in0.0 mm 0.00 in0.0 mm 0.00 in0.0 mm
04:19 AM 32.2°F0.1°C 28.2°F-2.1°C 85% 8.0 mph ENE12.9 kmh ENE 11.0 mph17.7 kmh 30.32 in1026.8 mb 0.00 in0.0 mm 0.00 in0.0 mm 0.00 in0.0 mm
04:24 AM 32.0°F0.0°C 28.0°F-2.2°C 85% 8.0 mph ENE12.9 kmh ENE 14.0 mph22.5 kmh 30.32 in1026.8 mb 0.00 in0.0 mm 0.00 in0.0 mm 0.00 in0.0 mm
04:29 AM 32.0°F0.0°C 28.0°F-2.2°C 85% 8.0 mph ENE12.9 kmh ENE 14.0 mph22.5 kmh 30.32 in1026.8 mb 0.00 in0.0 mm 0.00 in0.0 mm 0.00 in0.0 mm
04:34 AM 32.0°F0.0°C 28.0°F-2.2°C 85% 8.0 mph ENE12.9 kmh ENE 11.0 mph17.7 kmh 30.32 in1026.8 mb 0.00 in0.0 mm 0.00 in0.0 mm 0.00 in0.0 mm
04:39 AM 32.0°F0.0°C 28.0°F-2.2°C 85% 8.0 mph ENE12.9 kmh ENE 13.0 mph20.9 kmh 30.32 in1026.8 mb 0.00 in0.0 mm 0.00 in0.0 mm 0.00 in0.0 mm
04:44 AM 32.0°F0.0°C 28.0°F-2.2°C 85% 9.0 mph ENE14.5 kmh ENE 14.0 mph22.5 kmh 30.32 in1026.8 mb 0.00 in0.0 mm 0.00 in0.0 mm 0.00 in0.0 mm
04:49 AM 32.0°F0.0°C 28.0°F-2.2°C 85% 8.0 mph ENE12.9 kmh ENE 12.0 mph19.3 kmh 30.32 in1026.8 mb 0.00 in0.0 mm 0.00 in0.0 mm 0.00 in0.0 mm
04:54 AM 32.0°F0.0°C 28.0°F-2.2°C 85% 8.0 mph ENE12.9 kmh ENE 13.0 mph20.9 kmh 30.31 in1026.4 mb 0.00 in0.0 mm 0.00 in0.0 mm 0.00 in0.0 mm
04:59 AM 31.8°F-0.1°C 27.8°F-2.3°C 85% 9.0 mph ENE14.5 kmh ENE 14.0 mph22.5 kmh 30.31 in1026.4 mb 0.00 in0.0 mm 0.00 in0.0 mm 0.00 in0.0 mm
05:04 AM 31.8°F-0.1°C 27.8°F-2.3°C 85% 10.0 mph ENE16.1 kmh ENE 16.0 mph25.7 kmh 30.31 in1026.4 mb 0.00 in0.0 mm 0.00 in0.0 mm 0.00 in0.0 mm
05:09 AM 31.8°F-0.1°C 27.8°F-2.3°C 85% 11.0 mph ENE17.7 kmh ENE 15.0 mph24.1 kmh 30.31 in1026.4 mb 0.00 in0.0 mm 0.00 in0.0 mm 0.00 in0.0 mm
05:14 AM 31.8°F-0.1°C 27.8°F-2.3°C 85% 10.0 mph ENE16.1 kmh ENE 14.0 mph22.5 kmh 30.31 in1026.4 mb 0.00 in0.0 mm 0.00 in0.0 mm 0.00 in0.0 mm
05:19 AM 31.6°F-0.2°C 27.7°F-2.4°C 85% 7.0 mph ENE11.3 kmh ENE 11.0 mph17.7 kmh 30.31 in1026.4 mb 0.00 in0.0 mm 0.00 in0.0 mm 0.00 in0.0 mm
05:24 AM 31.6°F-0.2°C 27.7°F-2.4°C 85% 5.0 mph E8.0 kmh E 16.0 mph25.7 kmh 30.31 in1026.4 mb 0.00 in0.0 mm 0.00 in0.0 mm 0.00 in0.0 mm
05:29 AM 31.5°F-0.3°C 27.5°F-2.5°C 85% 7.0 mph E11.3 kmh E 12.0 mph19.3 kmh 30.31 in1026.4 mb 0.00 in0.0 mm 0.00 in0.0 mm 0.00 in0.0 mm
05:34 AM 31.6°F-0.2°C 27.7°F-2.4°C 85% 5.0 mph ESE8.0 kmh ESE 9.0 mph14.5 kmh 30.31 in1026.4 mb 0.00 in0.0 mm 0.00 in0.0 mm 0.00 in0.0 mm
05:39 AM 31.5°F-0.3°C 27.5°F-2.5°C 85% 9.0 mph ENE14.5 kmh ENE 15.0 mph24.1 kmh 30.30 in1026.1 mb 0.00 in0.0 mm 0.00 in0.0 mm 0.00 in0.0 mm
05:44 AM 31.5°F-0.3°C 27.5°F-2.5°C 85% 7.0 mph E11.3 kmh E 10.0 mph16.1 kmh 30.31 in1026.4 mb 0.00 in0.0 mm 0.00 in0.0 mm 0.00 in0.0 mm
05:49 AM 31.3°F-0.4°C 27.3°F-2.6°C 85% 10.0 mph ENE16.1 kmh ENE 14.0 mph22.5 kmh 30.30 in1026.1 mb 0.00 in0.0 mm 0.00 in0.0 mm 0.00 in0.0 mm
05:54 AM 31.3°F-0.4°C 27.6°F-2.4°C 86% 5.0 mph E8.0 kmh E 10.0 mph16.1 kmh 30.30 in1026.1 mb 0.00 in0.0 mm 0.00 in0.0 mm 0.00 in0.0 mm
05:59 AM 31.3°F-0.4°C 27.6°F-2.4°C 86% 10.0 mph ENE16.1 kmh ENE 15.0 mph24.1 kmh 30.30 in1026.1 mb 0.00 in0.0 mm 0.00 in0.0 mm 0.00 in0.0 mm
06:04 AM 31.3°F-0.4°C 27.6°F-2.4°C 86% 8.0 mph E12.9 kmh E 12.0 mph19.3 kmh 30.30 in1026.1 mb 0.00 in0.0 mm 0.00 in0.0 mm 0.00 in0.0 mm
06:09 AM 31.3°F-0.4°C 27.6°F-2.4°C 86% 10.0 mph ENE16.1 kmh ENE 13.0 mph20.9 kmh 30.29 in1025.7 mb 0.00 in0.0 mm 0.00 in0.0 mm 0.00 in0.0 mm
06:14 AM 31.1°F-0.5°C 27.4°F-2.6°C 86% 5.0 mph E8.0 kmh E 9.0 mph14.5 kmh 30.29 in1025.7 mb 0.00 in0.0 mm 0.00 in0.0 mm 0.00 in0.0 mm
06:19 AM 31.3°F-0.4°C 27.6°F-2.4°C 86% 9.0 mph ENE14.5 kmh ENE 17.0 mph27.4 kmh 30.29 in1025.7 mb 0.00 in0.0 mm 0.00 in0.0 mm 0.00 in0.0 mm
06:24 AM 31.3°F-0.4°C 27.6°F-2.4°C 86% 6.0 mph ENE9.7 kmh ENE 13.0 mph20.9 kmh 30.29 in1025.7 mb 0.00 in0.0 mm 0.00 in0.0 mm 0.00 in0.0 mm
06:29 AM 31.5°F-0.3°C 27.8°F-2.3°C 86% 10.0 mph E16.1 kmh E 14.0 mph22.5 kmh 30.29 in1025.7 mb 0.00 in0.0 mm 0.00 in0.0 mm 0.00 in0.0 mm
06:34 AM 31.5°F-0.3°C 27.8°F-2.3°C 86% 10.0 mph ENE16.1 kmh ENE 15.0 mph24.1 kmh 30.29 in1025.7 mb 0.00 in0.0 mm 0.00 in0.0 mm 0.00 in0.0 mm
06:39 AM 31.5°F-0.3°C 27.8°F-2.3°C 86% 10.0 mph ENE16.1 kmh ENE 16.0 mph25.7 kmh 30.29 in1025.7 mb 0.00 in0.0 mm 0.00 in0.0 mm 0.00 in0.0 mm
06:44 AM 31.6°F-0.2°C 27.9°F-2.3°C 86% 9.0 mph ENE14.5 kmh ENE 12.0 mph19.3 kmh 30.29 in1025.7 mb 0.00 in0.0 mm 0.00 in0.0 mm 0.00 in0.0 mm
06:49 AM 31.8°F-0.1°C 28.1°F-2.2°C 86% 8.0 mph E12.9 kmh E 11.0 mph17.7 kmh 30.29 in1025.7 mb 0.00 in0.0 mm 0.00 in0.0 mm 0.00 in0.0 mm
06:54 AM 31.8°F-0.1°C 28.1°F-2.2°C 86% 6.0 mph NE9.7 kmh NE 9.0 mph14.5 kmh 30.29 in1025.7 mb 0.00 in0.0 mm 0.00 in0.0 mm 0.00 in0.0 mm
06:59 AM 31.8°F-0.1°C 27.8°F-2.3°C 85% 8.0 mph ENE12.9 kmh ENE 11.0 mph17.7 kmh 30.29 in1025.7 mb 0.00 in0.0 mm 0.00 in0.0 mm 0.00 in0.0 mm
07:04 AM 32.0°F0.0°C 28.0°F-2.2°C 85% 11.0 mph ENE17.7 kmh ENE 17.0 mph27.4 kmh 30.29 in1025.7 mb 0.00 in0.0 mm 0.00 in0.0 mm 0.00 in0.0 mm
07:09 AM 32.0°F0.0°C 28.0°F-2.2°C 85% 9.0 mph NE14.5 kmh NE 17.0 mph27.4 kmh 30.29 in1025.7 mb 0.00 in0.0 mm 0.00 in0.0 mm 0.00 in0.0 mm
07:14 AM 32.0°F0.0°C 28.0°F-2.2°C 85% 8.0 mph ENE12.9 kmh ENE 14.0 mph22.5 kmh 30.29 in1025.7 mb 0.00 in0.0 mm 0.00 in0.0 mm 0.00 in0.0 mm
07:19 AM 32.0°F0.0°C 28.0°F-2.2°C 85% 5.0 mph ENE8.0 kmh ENE 10.0 mph16.1 kmh 30.29 in1025.7 mb 0.00 in0.0 mm 0.00 in0.0 mm 0.00 in0.0 mm
07:24 AM 32.2°F0.1°C 28.2°F-2.1°C 85% 7.0 mph ENE11.3 kmh ENE 11.0 mph17.7 kmh 30.29 in1025.7 mb 0.00 in0.0 mm 0.00 in0.0 mm 0.00 in0.0 mm
07:29 AM 32.2°F0.1°C 28.2°F-2.1°C 85% 9.0 mph ENE14.5 kmh ENE 13.0 mph20.9 kmh 30.29 in1025.7 mb 0.00 in0.0 mm 0.00 in0.0 mm 0.00 in0.0 mm
07:34 AM 32.4°F0.2°C 28.4°F-2.0°C 85% 6.0 mph ENE9.7 kmh ENE 10.0 mph16.1 kmh 30.29 in1025.7 mb 0.00 in0.0 mm 0.00 in0.0 mm 0.00 in0.0 mm
07:39 AM 32.4°F0.2°C 28.4°F-2.0°C 85% 5.0 mph ENE8.0 kmh ENE 8.0 mph12.9 kmh 30.29 in1025.7 mb 0.00 in0.0 mm 0.00 in0.0 mm 0.00 in0.0 mm
07:44 AM 32.5°F0.3°C 28.5°F-1.9°C 85% 13.0 mph ENE20.9 kmh ENE 18.0 mph29.0 kmh 30.29 in1025.7 mb 0.00 in0.0 mm 0.00 in0.0 mm 0.00 in0.0 mm
07:49 AM 32.5°F0.3°C 28.5°F-1.9°C 85% 12.0 mph E19.3 kmh E 15.0 mph24.1 kmh 30.29 in1025.7 mb 0.00 in0.0 mm 0.00 in0.0 mm 0.00 in0.0 mm
07:54 AM 32.5°F0.3°C 28.5°F-1.9°C 85% 7.0 mph ENE11.3 kmh ENE 12.0 mph19.3 kmh 30.29 in1025.7 mb 0.00 in0.0 mm 0.00 in0.0 mm 0.00 in0.0 mm
07:59 AM 32.7°F0.4°C 28.7°F-1.8°C 85% 9.0 mph E14.5 kmh E 15.0 mph24.1 kmh 30.29 in1025.7 mb 0.00 in0.0 mm 0.00 in0.0 mm 0.00 in0.0 mm
08:04 AM 32.7°F0.4°C 28.7°F-1.8°C 85% 11.0 mph ENE17.7 kmh ENE 18.0 mph29.0 kmh 30.29 in1025.7 mb 0.00 in0.0 mm 0.00 in0.0 mm 0.00 in0.0 mm
08:09 AM 32.7°F0.4°C 28.7°F-1.8°C 85% 8.0 mph ENE12.9 kmh ENE 14.0 mph22.5 kmh 30.29 in1025.7 mb 0.00 in0.0 mm 0.00 in0.0 mm 0.00 in0.0 mm
08:14 AM 32.7°F0.4°C 28.7°F-1.8°C 85% 6.0 mph E9.7 kmh E 13.0 mph20.9 kmh 30.29 in1025.7 mb 0.00 in0.0 mm 0.00 in0.0 mm 0.00 in0.0 mm
08:19 AM 32.7°F0.4°C 28.7°F-1.8°C 85% 8.0 mph NE12.9 kmh NE 14.0 mph22.5 kmh 30.29 in1025.7 mb 0.00 in0.0 mm 0.00 in0.0 mm 0.00 in0.0 mm
08:24 AM 32.9°F0.5°C 28.9°F-1.7°C 85% 10.0 mph ENE16.1 kmh ENE 16.0 mph25.7 kmh 30.28 in1025.4 mb 0.00 in0.0 mm 0.00 in0.0 mm 0.00 in0.0 mm
08:29 AM 32.7°F0.4°C 28.7°F-1.8°C 85% 10.0 mph ENE16.1 kmh ENE 13.0 mph20.9 kmh 30.28 in1025.4 mb 0.00 in0.0 mm 0.00 in0.0 mm 0.00 in0.0 mm
08:34 AM 32.7°F0.4°C 28.7°F-1.8°C 85% 7.0 mph ENE11.3 kmh ENE 9.0 mph14.5 kmh 30.28 in1025.4 mb 0.00 in0.0 mm 0.00 in0.0 mm 0.00 in0.0 mm
08:39 AM 32.7°F0.4°C 28.7°F-1.8°C 85% 5.0 mph ENE8.0 kmh ENE 9.0 mph14.5 kmh 30.28 in1025.4 mb 0.00 in0.0 mm 0.00 in0.0 mm 0.00 in0.0 mm
08:44 AM 32.9°F0.5°C 28.9°F-1.7°C 85% 5.0 mph ENE8.0 kmh ENE 8.0 mph12.9 kmh 30.28 in1025.4 mb 0.00 in0.0 mm 0.00 in0.0 mm 0.00 in0.0 mm
08:49 AM 32.9°F0.5°C 28.9°F-1.7°C 85% 8.0 mph E12.9 kmh E 12.0 mph19.3 kmh 30.28 in1025.4 mb 0.00 in0.0 mm 0.00 in0.0 mm 0.00 in0.0 mm
08:54 AM 32.9°F0.5°C 28.9°F-1.7°C 85% 6.0 mph ENE9.7 kmh ENE 10.0 mph16.1 kmh 30.28 in1025.4 mb 0.00 in0.0 mm 0.00 in0.0 mm 0.00 in0.0 mm
08:59 AM 33.1°F0.6°C 29.1°F-1.6°C 85% 8.0 mph ENE12.9 kmh ENE 12.0 mph19.3 kmh 30.28 in1025.4 mb 0.00 in0.0 mm 0.00 in0.0 mm 0.00 in0.0 mm
09:04 AM 33.1°F0.6°C 29.1°F-1.6°C 85% 10.0 mph E16.1 kmh E 13.0 mph20.9 kmh 30.28 in1025.4 mb 0.00 in0.0 mm 0.00 in0.0 mm 0.00 in0.0 mm
09:09 AM 33.1°F0.6°C 29.1°F-1.6°C 85% 5.0 mph E8.0 kmh E 7.0 mph11.3 kmh 30.28 in1025.4 mb 0.00 in0.0 mm 0.00 in0.0 mm 0.00 in0.0 mm
09:14 AM 33.1°F0.6°C 29.1°F-1.6°C 85% 6.0 mph E9.7 kmh E 11.0 mph17.7 kmh 30.28 in1025.4 mb 0.00 in0.0 mm 0.00 in0.0 mm 0.00 in0.0 mm
09:19 AM 33.1°F0.6°C 29.1°F-1.6°C 85% 9.0 mph ENE14.5 kmh ENE 13.0 mph20.9 kmh 30.28 in1025.4 mb 0.00 in0.0 mm 0.00 in0.0 mm 0.00 in0.0 mm
09:24 AM 33.1°F0.6°C 29.1°F-1.6°C 85% 6.0 mph E9.7 kmh E 10.0 mph16.1 kmh 30.28 in1025.4 mb 0.00 in0.0 mm 0.00 in0.0 mm 0.00 in0.0 mm
09:29 AM 33.1°F0.6°C 29.1°F-1.6°C 85% 8.0 mph E12.9 kmh E 11.0 mph17.7 kmh 30.28 in1025.4 mb 0.00 in0.0 mm 0.00 in0.0 mm 0.00 in0.0 mm
09:34 AM 32.9°F0.5°C 28.9°F-1.7°C 85% 10.0 mph ENE16.1 kmh ENE 15.0 mph24.1 kmh 30.28 in1025.4 mb 0.00 in0.0 mm 0.00 in0.0 mm 0.00 in0.0 mm
09:39 AM 32.7°F0.4°C 28.7°F-1.8°C 85% 10.0 mph ENE16.1 kmh ENE 16.0 mph25.7 kmh 30.28 in1025.4 mb 0.00 in0.0 mm 0.00 in0.0 mm 0.00 in0.0 mm
09:44 AM 32.7°F0.4°C 28.7°F-1.8°C 85% 7.0 mph E11.3 kmh E 11.0 mph17.7 kmh 30.27 in1025.1 mb 0.00 in0.0 mm 0.00 in0.0 mm 0.00 in0.0 mm
09:49 AM 32.7°F0.4°C 28.7°F-1.8°C 85% 8.0 mph ENE12.9 kmh ENE 11.0 mph17.7 kmh 30.27 in1025.1 mb 0.00 in0.0 mm 0.00 in0.0 mm 0.00 in0.0 mm
09:54 AM 32.7°F0.4°C 29.0°F-1.7°C 86% 9.0 mph ENE14.5 kmh ENE 14.0 mph22.5 kmh 30.27 in1025.1 mb 0.00 in0.0 mm 0.00 in0.0 mm 0.00 in0.0 mm
09:59 AM 32.9°F0.5°C 28.9°F-1.7°C 85% 10.0 mph ENE16.1 kmh ENE 14.0 mph22.5 kmh 30.27 in1025.1 mb 0.00 in0.0 mm 0.00 in0.0 mm 0.00 in0.0 mm
10:04 AM 32.9°F0.5°C 28.9°F-1.7°C 85% 10.0 mph ENE16.1 kmh ENE 15.0 mph24.1 kmh 30.27 in1025.1 mb 0.00 in0.0 mm 0.00 in0.0 mm 0.00 in0.0 mm
10:09 AM 33.1°F0.6°C 29.1°F-1.6°C 85% 11.0 mph ENE17.7 kmh ENE 14.0 mph22.5 kmh 30.27 in1025.1 mb 0.00 in0.0 mm 0.00 in0.0 mm 0.00 in0.0 mm
10:14 AM 33.3°F0.7°C 29.3°F-1.5°C 85% 7.0 mph ENE11.3 kmh ENE 16.0 mph25.7 kmh 30.27 in1025.1 mb 0.00 in0.0 mm 0.00 in0.0 mm 0.00 in0.0 mm
10:19 AM 33.3°F0.7°C 29.3°F-1.5°C 85% 6.0 mph ENE9.7 kmh ENE 10.0 mph16.1 kmh 30.27 in1025.1 mb 0.00 in0.0 mm 0.00 in0.0 mm 0.00 in0.0 mm
10:24 AM 33.4°F0.8°C 29.4°F-1.4°C 85% 9.0 mph ENE14.5 kmh ENE 16.0 mph25.7 kmh 30.27 in1025.1 mb 0.00 in0.0 mm 0.00 in0.0 mm 0.00 in0.0 mm
10:29 AM 33.6°F0.9°C 29.6°F-1.3°C 85% 8.0 mph ENE12.9 kmh ENE 14.0 mph22.5 kmh 30.27 in1025.1 mb 0.00 in0.0 mm 0.00 in0.0 mm 0.00 in0.0 mm
10:34 AM 33.6°F0.9°C 29.3°F-1.5°C 84% 8.0 mph E12.9 kmh E 18.0 mph29.0 kmh 30.27 in1025.1 mb 0.00 in0.0 mm 0.00 in0.0 mm 0.00 in0.0 mm
10:39 AM 33.6°F0.9°C 29.3°F-1.5°C 84% 10.0 mph ENE16.1 kmh ENE 16.0 mph25.7 kmh 30.27 in1025.1 mb 0.00 in0.0 mm 0.00 in0.0 mm 0.00 in0.0 mm
10:44 AM 34.0°F1.1°C 29.7°F-1.3°C 84% 10.0 mph E16.1 kmh E 16.0 mph25.7 kmh 30.27 in1025.1 mb 0.00 in0.0 mm 0.00 in0.0 mm 0.00 in0.0 mm
10:49 AM 34.0°F1.1°C 29.7°F-1.3°C 84% 6.0 mph E9.7 kmh E 9.0 mph14.5 kmh 30.27 in1025.1 mb 0.00 in0.0 mm 0.00 in0.0 mm 0.00 in0.0 mm
10:54 AM 34.2°F1.2°C 29.8°F-1.2°C 84% 7.0 mph ENE11.3 kmh ENE 14.0 mph22.5 kmh 30.27 in1025.1 mb 0.00 in0.0 mm 0.00 in0.0 mm 0.00 in0.0 mm
10:59 AM 34.2°F1.2°C 29.8°F-1.2°C 84% 7.0 mph ENE11.3 kmh ENE 10.0 mph16.1 kmh 30.27 in1025.1 mb 0.00 in0.0 mm 0.00 in0.0 mm 0.00 in0.0 mm
11:04 AM 34.3°F1.3°C 30.0°F-1.1°C 84% 8.0 mph ENE12.9 kmh ENE 14.0 mph22.5 kmh 30.27 in1025.1 mb 0.00 in0.0 mm 0.00 in0.0 mm 0.00 in0.0 mm
11:09 AM 34.5°F1.4°C 30.2°F-1.0°C 84% 11.0 mph ENE17.7 kmh ENE 16.0 mph25.7 kmh 30.27 in1025.1 mb 0.00 in0.0 mm 0.00 in0.0 mm 0.00 in0.0 mm
11:14 AM 34.5°F1.4°C 29.9°F-1.2°C 83% 9.0 mph ENE14.5 kmh ENE 16.0 mph25.7 kmh 30.27 in1025.1 mb 0.00 in0.0 mm 0.00 in0.0 mm 0.00 in0.0 mm
11:19 AM 34.7°F1.5°C 30.1°F-1.1°C 83% 9.0 mph E14.5 kmh E 12.0 mph19.3 kmh 30.26 in1024.7 mb 0.00 in0.0 mm 0.00 in0.0 mm 0.00 in0.0 mm
11:24 AM 35.1°F1.7°C 30.7°F-0.7°C 84% 3.0 mph ENE4.8 kmh ENE 5.0 mph8.0 kmh 30.26 in1024.7 mb 0.00 in0.0 mm 0.00 in0.0 mm 0.00 in0.0 mm
11:29 AM 35.1°F1.7°C 30.4°F-0.9°C 83% 11.0 mph ENE17.7 kmh ENE 15.0 mph24.1 kmh 30.26 in1024.7 mb 0.00 in0.0 mm 0.00 in0.0 mm 0.00 in0.0 mm
11:34 AM 35.2°F1.8°C 30.6°F-0.8°C 83% 8.0 mph ENE12.9 kmh ENE 13.0 mph20.9 kmh 30.26 in1024.7 mb 0.00 in0.0 mm 0.00 in0.0 mm 0.00 in0.0 mm
11:39 AM 35.2°F1.8°C 30.6°F-0.8°C 83% 10.0 mph ENE16.1 kmh ENE 13.0 mph20.9 kmh 30.25 in1024.4 mb 0.00 in0.0 mm 0.00 in0.0 mm 0.00 in0.0 mm
11:44 AM 35.6°F2.0°C 31.0°F-0.6°C 83% 7.0 mph ENE11.3 kmh ENE 11.0 mph17.7 kmh 30.25 in1024.4 mb 0.00 in0.0 mm 0.00 in0.0 mm 0.00 in0.0 mm
11:49 AM 35.8°F2.1°C 31.1°F-0.5°C 83% 7.0 mph E11.3 kmh E 12.0 mph19.3 kmh 30.25 in1024.4 mb 0.00 in0.0 mm 0.00 in0.0 mm 0.00 in0.0 mm
11:54 AM 36.0°F2.2°C 31.3°F-0.4°C 83% 8.0 mph E12.9 kmh E 10.0 mph16.1 kmh 30.25 in1024.4 mb 0.00 in0.0 mm 0.00 in0.0 mm 0.00 in0.0 mm
11:59 AM 36.0°F2.2°C 31.0°F-0.6°C 82% 9.0 mph ENE14.5 kmh ENE 11.0 mph17.7 kmh 30.24 in1024.0 mb 0.00 in0.0 mm 0.00 in0.0 mm 0.00 in0.0 mm
12:04 PM 36.1°F2.3°C 31.2°F-0.4°C 82% 9.0 mph ENE14.5 kmh ENE 13.0 mph20.9 kmh 30.24 in1024.0 mb 0.00 in0.0 mm 0.00 in0.0 mm 0.00 in0.0 mm
12:09 PM 36.0°F2.2°C 31.0°F-0.6°C 82% 11.0 mph ENE17.7 kmh ENE 16.0 mph25.7 kmh 30.24 in1024.0 mb 0.00 in0.0 mm 0.00 in0.0 mm 0.00 in0.0 mm
12:14 PM 36.0°F2.2°C 31.0°F-0.6°C 82% 10.0 mph ENE16.1 kmh ENE 17.0 mph27.4 kmh 30.24 in1024.0 mb 0.00 in0.0 mm 0.00 in0.0 mm 0.00 in0.0 mm
12:19 PM 36.0°F2.2°C 31.0°F-0.6°C 82% 7.0 mph E11.3 kmh E 13.0 mph20.9 kmh 30.24 in1024.0 mb 0.00 in0.0 mm 0.00 in0.0 mm 0.00 in0.0 mm
12:24 PM 36.1°F2.3°C 31.2°F-0.4°C 82% 8.0 mph ENE12.9 kmh ENE 12.0 mph19.3 kmh 30.24 in1024.0 mb 0.00 in0.0 mm 0.00 in0.0 mm 0.00 in0.0 mm
12:29 PM 36.1°F2.3°C 31.2°F-0.4°C 82% 11.0 mph E17.7 kmh E 18.0 mph29.0 kmh 30.23 in1023.7 mb 0.00 in0.0 mm 0.00 in0.0 mm 0.00 in0.0 mm
12:34 PM 36.1°F2.3°C 30.9°F-0.6°C 81% 9.0 mph E14.5 kmh E 16.0 mph25.7 kmh 30.23 in1023.7 mb 0.00 in0.0 mm 0.00 in0.0 mm 0.00 in0.0 mm
12:39 PM 36.3°F2.4°C 31.4°F-0.3°C 82% 5.0 mph E8.0 kmh E 9.0 mph14.5 kmh 30.23 in1023.7 mb 0.00 in0.0 mm 0.00 in0.0 mm 0.00 in0.0 mm
12:44 PM 36.3°F2.4°C 31.4°F-0.3°C 82% 5.0 mph SSE8.0 kmh SSE 8.0 mph12.9 kmh 30.23 in1023.7 mb 0.00 in0.0 mm 0.00 in0.0 mm 0.00 in0.0 mm
12:49 PM 36.5°F2.5°C 31.5°F-0.3°C 82% 11.0 mph ENE17.7 kmh ENE 15.0 mph24.1 kmh 30.23 in1023.7 mb 0.00 in0.0 mm 0.00 in0.0 mm 0.00 in0.0 mm
12:54 PM 36.7°F2.6°C 31.4°F-0.3°C 81% 8.0 mph E12.9 kmh E 15.0 mph24.1 kmh 30.22 in1023.4 mb 0.00 in0.0 mm 0.00 in0.0 mm 0.00 in0.0 mm
12:59 PM 36.9°F2.7°C 31.6°F-0.2°C 81% 6.0 mph SE9.7 kmh SE 9.0 mph14.5 kmh 30.22 in1023.4 mb 0.00 in0.0 mm 0.00 in0.0 mm 0.00 in0.0 mm
01:04 PM 37.0°F2.8°C 31.8°F-0.1°C 81% 8.0 mph SE12.9 kmh SE 11.0 mph17.7 kmh 30.22 in1023.4 mb 0.00 in0.0 mm 0.00 in0.0 mm 0.00 in0.0 mm
01:09 PM 37.0°F2.8°C 31.8°F-0.1°C 81% 10.0 mph E16.1 kmh E 16.0 mph25.7 kmh 30.22 in1023.4 mb 0.00 in0.0 mm 0.00 in0.0 mm 0.00 in0.0 mm
01:14 PM 36.9°F2.7°C 31.6°F-0.2°C 81% 10.0 mph ESE16.1 kmh ESE 16.0 mph25.7 kmh 30.22 in1023.4 mb 0.00 in0.0 mm 0.00 in0.0 mm 0.00 in0.0 mm
01:19 PM 36.9°F2.7°C 31.6°F-0.2°C 81% 6.0 mph SE9.7 kmh SE 11.0 mph17.7 kmh 30.22 in1023.4 mb 0.00 in0.0 mm 0.00 in0.0 mm 0.00 in0.0 mm
01:24 PM 36.9°F2.7°C 31.6°F-0.2°C 81% 6.0 mph ESE9.7 kmh ESE 9.0 mph14.5 kmh 30.22 in1023.4 mb 0.00 in0.0 mm 0.00 in0.0 mm 0.00 in0.0 mm
01:29 PM 37.0°F2.8°C 31.8°F-0.1°C 81% 9.0 mph E14.5 kmh E 15.0 mph24.1 kmh 30.21 in1023.0 mb 0.00 in0.0 mm 0.00 in0.0 mm 0.00 in0.0 mm
01:34 PM 37.2°F2.9°C 31.9°F-0.1°C 81% 4.0 mph ESE6.4 kmh ESE 7.0 mph11.3 kmh 30.21 in1023.0 mb 0.00 in0.0 mm 0.00 in0.0 mm 0.00 in0.0 mm
01:39 PM 37.2°F2.9°C 31.6°F-0.2°C 80% 8.0 mph ENE12.9 kmh ENE 14.0 mph22.5 kmh 30.21 in1023.0 mb 0.00 in0.0 mm 0.00 in0.0 mm 0.00 in0.0 mm
01:44 PM 37.4°F3.0°C 31.8°F-0.1°C 80% 8.0 mph SE12.9 kmh SE 12.0 mph19.3 kmh 30.21 in1023.0 mb 0.00 in0.0 mm 0.00 in0.0 mm 0.00 in0.0 mm
01:49 PM 37.4°F3.0°C 31.8°F-0.1°C 80% 4.0 mph SE6.4 kmh SE 7.0 mph11.3 kmh 30.20 in1022.7 mb 0.00 in0.0 mm 0.00 in0.0 mm 0.00 in0.0 mm
01:54 PM 37.6°F3.1°C 32.0°F0.0°C 80% 5.0 mph SE8.0 kmh SE 7.0 mph11.3 kmh 30.20 in1022.7 mb 0.00 in0.0 mm 0.00 in0.0 mm 0.00 in0.0 mm
01:59 PM 37.6°F3.1°C 32.0°F0.0°C 80% 6.0 mph E9.7 kmh E 11.0 mph17.7 kmh 30.20 in1022.7 mb 0.00 in0.0 mm 0.00 in0.0 mm 0.00 in0.0 mm
02:04 PM 37.6°F3.1°C 32.0°F0.0°C 80% 3.0 mph SE4.8 kmh SE 6.0 mph9.7 kmh 30.20 in1022.7 mb 0.00 in0.0 mm 0.00 in0.0 mm 0.00 in0.0 mm
02:09 PM 37.8°F3.2°C 32.2°F0.1°C 80% 7.0 mph SE11.3 kmh SE 12.0 mph19.3 kmh 30.19 in1022.4 mb 0.00 in0.0 mm 0.00 in0.0 mm 0.00 in0.0 mm
02:14 PM 37.8°F3.2°C 32.2°F0.1°C 80% 7.0 mph SE11.3 kmh SE 14.0 mph22.5 kmh 30.19 in1022.4 mb 0.00 in0.0 mm 0.00 in0.0 mm 0.00 in0.0 mm
02:19 PM 37.8°F3.2°C 32.2°F0.1°C 80% 6.0 mph SE9.7 kmh SE 9.0 mph14.5 kmh 30.19 in1022.4 mb 0.00 in0.0 mm 0.00 in0.0 mm 0.00 in0.0 mm
02:24 PM 37.8°F3.2°C 32.2°F0.1°C 80% 10.0 mph E16.1 kmh E 15.0 mph24.1 kmh 30.19 in1022.4 mb 0.00 in0.0 mm 0.00 in0.0 mm 0.00 in0.0 mm
02:29 PM 37.8°F3.2°C 32.2°F0.1°C 80% 10.0 mph E16.1 kmh E 16.0 mph25.7 kmh 30.19 in1022.4 mb 0.00 in0.0 mm 0.00 in0.0 mm 0.00 in0.0 mm
02:34 PM 37.8°F3.2°C 32.2°F0.1°C 80% 5.0 mph SE8.0 kmh SE 9.0 mph14.5 kmh 30.19 in1022.4 mb 0.00 in0.0 mm 0.00 in0.0 mm 0.00 in0.0 mm
02:39 PM 37.8°F3.2°C 32.2°F0.1°C 80% 11.0 mph E17.7 kmh E 17.0 mph27.4 kmh 30.18 in1022.0 mb 0.00 in0.0 mm 0.00 in0.0 mm 0.00 in0.0 mm
02:44 PM 37.9°F3.3°C 32.3°F0.2°C 80% 8.0 mph E12.9 kmh E 10.0 mph16.1 kmh 30.18 in1022.0 mb 0.00 in0.0 mm 0.00 in0.0 mm 0.00 in0.0 mm
02:49 PM 37.9°F3.3°C 32.3°F0.2°C 80% 11.0 mph E17.7 kmh E 14.0 mph22.5 kmh 30.18 in1022.0 mb 0.00 in0.0 mm 0.00 in0.0 mm 0.00 in0.0 mm
02:54 PM 37.9°F3.3°C 32.3°F0.2°C 80% 8.0 mph E12.9 kmh E 13.0 mph20.9 kmh 30.18 in1022.0 mb 0.00 in0.0 mm 0.00 in0.0 mm 0.00 in0.0 mm
02:59 PM 37.9°F3.3°C 32.3°F0.2°C 80% 7.0 mph SE11.3 kmh SE 12.0 mph19.3 kmh 30.17 in1021.7 mb 0.00 in0.0 mm 0.00 in0.0 mm 0.00 in0.0 mm
03:04 PM 38.1°F3.4°C 32.5°F0.3°C 80% 5.0 mph ESE8.0 kmh ESE 9.0 mph14.5 kmh 30.17 in1021.7 mb 0.00 in0.0 mm 0.00 in0.0 mm 0.00 in0.0 mm
03:09 PM 38.1°F3.4°C 32.5°F0.3°C 80% 11.0 mph E17.7 kmh E 15.0 mph24.1 kmh 30.17 in1021.7 mb 0.00 in0.0 mm 0.00 in0.0 mm 0.00 in0.0 mm
03:14 PM 38.1°F3.4°C 32.5°F0.3°C 80% 6.0 mph E9.7 kmh E 9.0 mph14.5 kmh 30.17 in1021.7 mb 0.00 in0.0 mm 0.00 in0.0 mm 0.00 in0.0 mm
03:19 PM 38.3°F3.5°C 32.7°F0.4°C 80% 6.0 mph ENE9.7 kmh ENE 8.0 mph12.9 kmh 30.16 in1021.3 mb 0.00 in0.0 mm 0.00 in0.0 mm 0.00 in0.0 mm
03:24 PM 38.3°F3.5°C 32.7°F0.4°C 80% 7.0 mph E11.3 kmh E 10.0 mph16.1 kmh 30.16 in1021.3 mb 0.00 in0.0 mm 0.00 in0.0 mm 0.00 in0.0 mm
03:29 PM 38.5°F3.6°C 32.9°F0.5°C 80% 7.0 mph E11.3 kmh E 13.0 mph20.9 kmh 30.16 in1021.3 mb 0.00 in0.0 mm 0.00 in0.0 mm 0.00 in0.0 mm
03:34 PM 38.5°F3.6°C 32.9°F0.5°C 80% 9.0 mph ENE14.5 kmh ENE 16.0 mph25.7 kmh 30.16 in1021.3 mb 0.00 in0.0 mm 0.00 in0.0 mm 0.00 in0.0 mm
03:39 PM 38.5°F3.6°C 32.9°F0.5°C 80% 8.0 mph ENE12.9 kmh ENE 13.0 mph20.9 kmh 30.16 in1021.3 mb 0.00 in0.0 mm 0.00 in0.0 mm 0.00 in0.0 mm
03:44 PM 38.5°F3.6°C 32.9°F0.5°C 80% 7.0 mph E11.3 kmh E 13.0 mph20.9 kmh 30.16 in1021.3 mb 0.00 in0.0 mm 0.00 in0.0 mm 0.00 in0.0 mm
03:49 PM 38.7°F3.7°C 33.0°F0.6°C 80% 10.0 mph ENE16.1 kmh ENE 15.0 mph24.1 kmh 30.16 in1021.3 mb 0.00 in0.0 mm 0.00 in0.0 mm 0.00 in0.0 mm
03:54 PM 38.7°F3.7°C 32.7°F0.4°C 79% 5.0 mph E8.0 kmh E 8.0 mph12.9 kmh 30.16 in1021.3 mb 0.00 in0.0 mm 0.00 in0.0 mm 0.00 in0.0 mm
03:59 PM 38.5°F3.6°C 32.9°F0.5°C 80% 7.0 mph E11.3 kmh E 14.0 mph22.5 kmh 30.16 in1021.3 mb 0.00 in0.0 mm 0.00 in0.0 mm 0.00 in0.0 mm
04:04 PM 38.5°F3.6°C 32.6°F0.3°C 79% 4.0 mph E6.4 kmh E 8.0 mph12.9 kmh 30.16 in1021.3 mb 0.00 in0.0 mm 0.00 in0.0 mm 0.00 in0.0 mm
04:09 PM 38.5°F3.6°C 32.6°F0.3°C 79% 5.0 mph SSE8.0 kmh SSE 10.0 mph16.1 kmh 30.16 in1021.3 mb 0.00 in0.0 mm 0.00 in0.0 mm 0.00 in0.0 mm
04:14 PM 38.5°F3.6°C 32.6°F0.3°C 79% 4.0 mph E6.4 kmh E 6.0 mph9.7 kmh 30.16 in1021.3 mb 0.00 in0.0 mm 0.00 in0.0 mm 0.00 in0.0 mm
04:19 PM 38.5°F3.6°C 32.6°F0.3°C 79% 8.0 mph ENE12.9 kmh ENE 14.0 mph22.5 kmh 30.16 in1021.3 mb 0.00 in0.0 mm 0.00 in0.0 mm 0.00 in0.0 mm
04:24 PM 38.5°F3.6°C 32.6°F0.3°C 79% 3.0 mph SSE4.8 kmh SSE 9.0 mph14.5 kmh 30.16 in1021.3 mb 0.00 in0.0 mm 0.00 in0.0 mm 0.00 in0.0 mm
04:29 PM 38.3°F3.5°C 32.7°F0.4°C 80% 7.0 mph ENE11.3 kmh ENE 13.0 mph20.9 kmh 30.16 in1021.3 mb 0.00 in0.0 mm 0.00 in0.0 mm 0.00 in0.0 mm
04:34 PM 38.3°F3.5°C 32.4°F0.2°C 79% 4.0 mph ESE6.4 kmh ESE 7.0 mph11.3 kmh 30.16 in1021.3 mb 0.00 in0.0 mm 0.00 in0.0 mm 0.00 in0.0 mm
04:39 PM 38.1°F3.4°C 32.2°F0.1°C 79% 5.0 mph SE8.0 kmh SE 11.0 mph17.7 kmh 30.16 in1021.3 mb 0.00 in0.0 mm 0.00 in0.0 mm 0.00 in0.0 mm
04:44 PM 37.9°F3.3°C 32.3°F0.2°C 80% 3.0 mph ENE4.8 kmh ENE 6.0 mph9.7 kmh 30.16 in1021.3 mb 0.00 in0.0 mm 0.00 in0.0 mm 0.00 in0.0 mm
04:49 PM 37.8°F3.2°C 32.2°F0.1°C 80% 4.0 mph E6.4 kmh E 7.0 mph11.3 kmh 30.16 in1021.3 mb 0.00 in0.0 mm 0.00 in0.0 mm 0.00 in0.0 mm
04:54 PM 37.8°F3.2°C 32.2°F0.1°C 80% 5.0 mph ENE8.0 kmh ENE 8.0 mph12.9 kmh 30.16 in1021.3 mb 0.00 in0.0 mm 0.00 in0.0 mm 0.00 in0.0 mm
04:59 PM 37.8°F3.2°C 32.2°F0.1°C 80% 2.0 mph S3.2 kmh S 4.0 mph6.4 kmh 30.15 in1021.0 mb 0.00 in0.0 mm 0.00 in0.0 mm 0.00 in0.0 mm
05:04 PM 37.6°F3.1°C 32.3°F0.2°C 81% 6.0 mph ENE9.7 kmh ENE 10.0 mph16.1 kmh 30.15 in1021.0 mb 0.00 in0.0 mm 0.00 in0.0 mm 0.00 in0.0 mm
05:09 PM 37.4°F3.0°C 32.1°F0.1°C 81% 5.0 mph E8.0 kmh E 9.0 mph14.5 kmh 30.15 in1021.0 mb 0.00 in0.0 mm 0.00 in0.0 mm 0.00 in0.0 mm
05:14 PM 37.2°F2.9°C 31.9°F-0.1°C 81% 5.0 mph ESE8.0 kmh ESE 10.0 mph16.1 kmh 30.15 in1021.0 mb 0.00 in0.0 mm 0.00 in0.0 mm 0.00 in0.0 mm
05:19 PM 37.2°F2.9°C 31.9°F-0.1°C 81% 5.0 mph E8.0 kmh E 9.0 mph14.5 kmh 30.15 in1021.0 mb 0.00 in0.0 mm 0.00 in0.0 mm 0.00 in0.0 mm
05:24 PM 37.2°F2.9°C 32.2°F0.1°C 82% 6.0 mph E9.7 kmh E 10.0 mph16.1 kmh 30.15 in1021.0 mb 0.00 in0.0 mm 0.00 in0.0 mm 0.00 in0.0 mm
05:29 PM 37.2°F2.9°C 32.2°F0.1°C 82% 5.0 mph ESE8.0 kmh ESE 9.0 mph14.5 kmh 30.15 in1021.0 mb 0.00 in0.0 mm 0.00 in0.0 mm 0.00 in0.0 mm
05:34 PM 37.2°F2.9°C 32.2°F0.1°C 82% 2.0 mph SSE3.2 kmh SSE 3.0 mph4.8 kmh 30.15 in1021.0 mb 0.00 in0.0 mm 0.00 in0.0 mm 0.00 in0.0 mm
05:39 PM 37.0°F2.8°C 32.1°F0.1°C 82% 3.0 mph E4.8 kmh E 5.0 mph8.0 kmh 30.15 in1021.0 mb 0.00 in0.0 mm 0.00 in0.0 mm 0.00 in0.0 mm
05:44 PM 37.0°F2.8°C 32.1°F0.1°C 82% 3.0 mph ESE4.8 kmh ESE 7.0 mph11.3 kmh 30.15 in1021.0 mb 0.00 in0.0 mm 0.00 in0.0 mm 0.00 in0.0 mm
05:49 PM 37.0°F2.8°C 32.1°F0.1°C 82% 4.0 mph E6.4 kmh E 12.0 mph19.3 kmh 30.15 in1021.0 mb 0.00 in0.0 mm 0.00 in0.0 mm 0.00 in0.0 mm
05:54 PM 37.0°F2.8°C 32.1°F0.1°C 82% 3.0 mph E4.8 kmh E 5.0 mph8.0 kmh 30.15 in1021.0 mb 0.00 in0.0 mm 0.00 in0.0 mm 0.00 in0.0 mm
05:59 PM 36.9°F2.7°C 31.9°F-0.1°C 82% 7.0 mph E11.3 kmh E 12.0 mph19.3 kmh 30.15 in1021.0 mb 0.00 in0.0 mm 0.00 in0.0 mm 0.00 in0.0 mm
06:04 PM 37.0°F2.8°C 32.1°F0.1°C 82% 2.0 mph E3.2 kmh E 3.0 mph4.8 kmh 30.15 in1021.0 mb 0.00 in0.0 mm 0.00 in0.0 mm 0.00 in0.0 mm
06:09 PM 36.9°F2.7°C 31.9°F-0.1°C 82% 3.0 mph E4.8 kmh E 5.0 mph8.0 kmh 30.15 in1021.0 mb 0.00 in0.0 mm 0.00 in0.0 mm 0.00 in0.0 mm
06:14 PM 36.9°F2.7°C 31.9°F-0.1°C 82% 4.0 mph SE6.4 kmh SE 8.0 mph12.9 kmh 30.14 in1020.7 mb 0.00 in0.0 mm 0.00 in0.0 mm 0.00 in0.0 mm
06:19 PM 36.9°F2.7°C 31.9°F-0.1°C 82% 8.0 mph E12.9 kmh E 11.0 mph17.7 kmh 30.14 in1020.7 mb 0.00 in0.0 mm 0.00 in0.0 mm 0.00 in0.0 mm
06:24 PM 36.9°F2.7°C 31.9°F-0.1°C 82% 4.0 mph SE6.4 kmh SE 7.0 mph11.3 kmh 30.14 in1020.7 mb 0.00 in0.0 mm 0.00 in0.0 mm 0.00 in0.0 mm
06:29 PM 36.9°F2.7°C 31.9°F-0.1°C 82% 5.0 mph E8.0 kmh E 10.0 mph16.1 kmh 30.15 in1021.0 mb 0.00 in0.0 mm 0.00 in0.0 mm 0.00 in0.0 mm
06:34 PM 36.7°F2.6°C 31.7°F-0.2°C 82% 3.0 mph ENE4.8 kmh ENE 4.0 mph6.4 kmh 30.14 in1020.7 mb 0.00 in0.0 mm 0.00 in0.0 mm 0.00 in0.0 mm
06:39 PM 36.7°F2.6°C 31.7°F-0.2°C 82% 5.0 mph E8.0 kmh E 10.0 mph16.1 kmh 30.14 in1020.7 mb 0.00 in0.0 mm 0.00 in0.0 mm 0.00 in0.0 mm
06:44 PM 36.7°F2.6°C 31.7°F-0.2°C 82% 5.0 mph E8.0 kmh E 8.0 mph12.9 kmh 30.14 in1020.7 mb 0.00 in0.0 mm 0.00 in0.0 mm 0.00 in0.0 mm
06:49 PM 36.7°F2.6°C 31.7°F-0.2°C 82% 4.0 mph ENE6.4 kmh ENE 6.0 mph9.7 kmh 30.14 in1020.7 mb 0.00 in0.0 mm 0.00 in0.0 mm 0.00 in0.0 mm
06:54 PM 36.5°F2.5°C 31.5°F-0.3°C 82% 4.0 mph E6.4 kmh E 7.0 mph11.3 kmh 30.14 in1020.7 mb 0.00 in0.0 mm 0.00 in0.0 mm 0.00 in0.0 mm
06:59 PM 36.3°F2.4°C 31.7°F-0.2°C 83% 4.0 mph E6.4 kmh E 9.0 mph14.5 kmh 30.14 in1020.7 mb 0.00 in0.0 mm 0.00 in0.0 mm 0.00 in0.0 mm
07:04 PM 36.3°F2.4°C 31.7°F-0.2°C 83% 5.0 mph ENE8.0 kmh ENE 10.0 mph16.1 kmh 30.14 in1020.7 mb 0.00 in0.0 mm 0.00 in0.0 mm 0.00 in0.0 mm
07:09 PM 36.3°F2.4°C 31.7°F-0.2°C 83% 6.0 mph ENE9.7 kmh ENE 10.0 mph16.1 kmh 30.14 in1020.7 mb 0.00 in0.0 mm 0.00 in0.0 mm 0.00 in0.0 mm
07:14 PM 36.1°F2.3°C 31.5°F-0.3°C 83% 5.0 mph ENE8.0 kmh ENE 10.0 mph16.1 kmh 30.14 in1020.7 mb 0.00 in0.0 mm 0.00 in0.0 mm 0.00 in0.0 mm
07:19 PM 36.1°F2.3°C 31.5°F-0.3°C 83% 7.0 mph ENE11.3 kmh ENE 13.0 mph20.9 kmh 30.13 in1020.3 mb 0.00 in0.0 mm 0.00 in0.0 mm 0.00 in0.0 mm
07:24 PM 36.3°F2.4°C 31.7°F-0.2°C 83% 5.0 mph ENE8.0 kmh ENE 8.0 mph12.9 kmh 30.13 in1020.3 mb 0.00 in0.0 mm 0.00 in0.0 mm 0.00 in0.0 mm
07:29 PM 36.1°F2.3°C 31.5°F-0.3°C 83% 4.0 mph ENE6.4 kmh ENE 7.0 mph11.3 kmh 30.14 in1020.7 mb 0.00 in0.0 mm 0.00 in0.0 mm 0.00 in0.0 mm
07:34 PM 36.0°F2.2°C 31.3°F-0.4°C 83% 4.0 mph NE6.4 kmh NE 10.0 mph16.1 kmh 30.14 in1020.7 mb 0.00 in0.0 mm 0.00 in0.0 mm 0.00 in0.0 mm
07:39 PM 36.0°F2.2°C 31.3°F-0.4°C 83% 8.0 mph NE12.9 kmh NE 11.0 mph17.7 kmh 30.13 in1020.3 mb 0.00 in0.0 mm 0.00 in0.0 mm 0.00 in0.0 mm
07:44 PM 35.8°F2.1°C 31.1°F-0.5°C 83% 4.0 mph ENE6.4 kmh ENE 5.0 mph8.0 kmh 30.13 in1020.3 mb 0.00 in0.0 mm 0.00 in0.0 mm 0.00 in0.0 mm
07:49 PM 35.8°F2.1°C 31.1°F-0.5°C 83% 4.0 mph ENE6.4 kmh ENE 5.0 mph8.0 kmh 30.13 in1020.3 mb 0.00 in0.0 mm 0.00 in0.0 mm 0.00 in0.0 mm
07:54 PM 35.8°F2.1°C 31.1°F-0.5°C 83% 4.0 mph ENE6.4 kmh ENE 8.0 mph12.9 kmh 30.13 in1020.3 mb 0.00 in0.0 mm 0.00 in0.0 mm 0.00 in0.0 mm
07:59 PM 35.4°F1.9°C 30.8°F-0.7°C 83% 4.0 mph NE6.4 kmh NE 8.0 mph12.9 kmh 30.13 in1020.3 mb 0.00 in0.0 mm 0.00 in0.0 mm 0.00 in0.0 mm
08:04 PM 35.2°F1.8°C 30.6°F-0.8°C 83% 4.0 mph NE6.4 kmh NE 6.0 mph9.7 kmh 30.12 in1020.0 mb 0.00 in0.0 mm 0.00 in0.0 mm 0.00 in0.0 mm
08:09 PM 35.1°F1.7°C 30.7°F-0.7°C 84% 3.0 mph ENE4.8 kmh ENE 7.0 mph11.3 kmh 30.12 in1020.0 mb 0.00 in0.0 mm 0.00 in0.0 mm 0.00 in0.0 mm
08:14 PM 34.9°F1.6°C 30.6°F-0.8°C 84% 4.0 mph NE6.4 kmh NE 8.0 mph12.9 kmh 30.12 in1020.0 mb 0.00 in0.0 mm 0.00 in0.0 mm 0.00 in0.0 mm
08:19 PM 34.7°F1.5°C 30.4°F-0.9°C 84% 4.0 mph ENE6.4 kmh ENE 7.0 mph11.3 kmh 30.11 in1019.6 mb 0.00 in0.0 mm 0.00 in0.0 mm 0.00 in0.0 mm
08:24 PM 34.9°F1.6°C 30.6°F-0.8°C 84% 6.0 mph ENE9.7 kmh ENE 9.0 mph14.5 kmh 30.11 in1019.6 mb 0.00 in0.0 mm 0.00 in0.0 mm 0.00 in0.0 mm
08:29 PM 34.7°F1.5°C 30.4°F-0.9°C 84% 7.0 mph ENE11.3 kmh ENE 12.0 mph19.3 kmh 30.11 in1019.6 mb 0.00 in0.0 mm 0.00 in0.0 mm 0.00 in0.0 mm
08:34 PM 34.9°F1.6°C 30.3°F-0.9°C 83% 7.0 mph E11.3 kmh E 13.0 mph20.9 kmh 30.11 in1019.6 mb 0.00 in0.0 mm 0.00 in0.0 mm 0.00 in0.0 mm
08:39 PM 34.9°F1.6°C 30.3°F-0.9°C 83% 5.0 mph ENE8.0 kmh ENE 9.0 mph14.5 kmh 30.11 in1019.6 mb 0.00 in0.0 mm 0.00 in0.0 mm 0.00 in0.0 mm
08:44 PM 34.9°F1.6°C 30.3°F-0.9°C 83% 8.0 mph ENE12.9 kmh ENE 13.0 mph20.9 kmh 30.11 in1019.6 mb 0.00 in0.0 mm 0.00 in0.0 mm 0.00 in0.0 mm
08:49 PM 34.9°F1.6°C 30.3°F-0.9°C 83% 5.0 mph ENE8.0 kmh ENE 9.0 mph14.5 kmh 30.11 in1019.6 mb 0.00 in0.0 mm 0.00 in0.0 mm 0.00 in0.0 mm
08:54 PM 34.9°F1.6°C 30.3°F-0.9°C 83% 6.0 mph ENE9.7 kmh ENE 9.0 mph14.5 kmh 30.10 in1019.3 mb 0.00 in0.0 mm 0.00 in0.0 mm 0.00 in0.0 mm
08:59 PM 34.7°F1.5°C 30.1°F-1.1°C 83% 5.0 mph ENE8.0 kmh ENE 9.0 mph14.5 kmh 30.10 in1019.3 mb 0.00 in0.0 mm 0.00 in0.0 mm 0.00 in0.0 mm
09:04 PM 34.7°F1.5°C 30.1°F-1.1°C 83% 7.0 mph ENE11.3 kmh ENE 11.0 mph17.7 kmh 30.09 in1019.0 mb 0.00 in0.0 mm 0.00 in0.0 mm 0.00 in0.0 mm
09:09 PM 34.7°F1.5°C 30.1°F-1.1°C 83% 7.0 mph NE11.3 kmh NE 9.0 mph14.5 kmh 30.10 in1019.3 mb 0.00 in0.0 mm 0.00 in0.0 mm 0.00 in0.0 mm
09:14 PM 34.5°F1.4°C 29.9°F-1.2°C 83% 7.0 mph ENE11.3 kmh ENE 12.0 mph19.3 kmh 30.09 in1019.0 mb 0.00 in0.0 mm 0.00 in0.0 mm 0.00 in0.0 mm
09:19 PM 34.5°F1.4°C 29.9°F-1.2°C 83% 9.0 mph ENE14.5 kmh ENE 16.0 mph25.7 kmh 30.09 in1019.0 mb 0.00 in0.0 mm 0.00 in0.0 mm 0.00 in0.0 mm
09:24 PM 34.5°F1.4°C 29.9°F-1.2°C 83% 6.0 mph E9.7 kmh E 10.0 mph16.1 kmh 30.09 in1019.0 mb 0.00 in0.0 mm 0.00 in0.0 mm 0.00 in0.0 mm
09:29 PM 34.5°F1.4°C 29.9°F-1.2°C 83% 6.0 mph ENE9.7 kmh ENE 8.0 mph12.9 kmh 30.09 in1019.0 mb 0.00 in0.0 mm 0.00 in0.0 mm 0.00 in0.0 mm
09:34 PM 34.5°F1.4°C 29.9°F-1.2°C 83% 8.0 mph E12.9 kmh E 11.0 mph17.7 kmh 30.09 in1019.0 mb 0.00 in0.0 mm 0.00 in0.0 mm 0.00 in0.0 mm
09:39 PM 34.5°F1.4°C 29.9°F-1.2°C 83% 4.0 mph SE6.4 kmh SE 11.0 mph17.7 kmh 30.09 in1019.0 mb 0.00 in0.0 mm 0.00 in0.0 mm 0.00 in0.0 mm
09:44 PM 34.5°F1.4°C 29.9°F-1.2°C 83% 4.0 mph ENE6.4 kmh ENE 9.0 mph14.5 kmh 30.09 in1019.0 mb 0.00 in0.0 mm 0.00 in0.0 mm 0.00 in0.0 mm
09:49 PM 34.3°F1.3°C 29.7°F-1.3°C 83% 5.0 mph E8.0 kmh E 7.0 mph11.3 kmh 30.09 in1019.0 mb 0.00 in0.0 mm 0.00 in0.0 mm 0.00 in0.0 mm
09:54 PM 34.5°F1.4°C 29.9°F-1.2°C 83% 4.0 mph ENE6.4 kmh ENE 7.0 mph11.3 kmh 30.08 in1018.6 mb 0.00 in0.0 mm 0.00 in0.0 mm 0.00 in0.0 mm
09:59 PM 34.3°F1.3°C 29.7°F-1.3°C 83% 7.0 mph ENE11.3 kmh ENE 10.0 mph16.1 kmh 30.08 in1018.6 mb 0.00 in0.0 mm 0.00 in0.0 mm 0.00 in0.0 mm
10:04 PM 34.3°F1.3°C 29.7°F-1.3°C 83% 4.0 mph E6.4 kmh E 7.0 mph11.3 kmh 30.08 in1018.6 mb 0.00 in0.0 mm 0.00 in0.0 mm 0.00 in0.0 mm
10:09 PM 34.3°F1.3°C 29.7°F-1.3°C 83% 4.0 mph E6.4 kmh E 5.0 mph8.0 kmh 30.08 in1018.6 mb 0.00 in0.0 mm 0.00 in0.0 mm 0.00 in0.0 mm
10:14 PM 34.2°F1.2°C 29.8°F-1.2°C 84% 5.0 mph E8.0 kmh E 8.0 mph12.9 kmh 30.08 in1018.6 mb 0.00 in0.0 mm 0.00 in0.0 mm 0.00 in0.0 mm
10:19 PM 34.3°F1.3°C 30.0°F-1.1°C 84% 7.0 mph E11.3 kmh E 12.0 mph19.3 kmh 30.08 in1018.6 mb 0.00 in0.0 mm 0.00 in0.0 mm 0.00 in0.0 mm
10:24 PM 34.3°F1.3°C 30.0°F-1.1°C 84% 5.0 mph SE8.0 kmh SE 7.0 mph11.3 kmh 30.07 in1018.3 mb 0.00 in0.0 mm 0.00 in0.0 mm 0.00 in0.0 mm
10:29 PM 34.3°F1.3°C 30.0°F-1.1°C 84% 4.0 mph ESE6.4 kmh ESE 7.0 mph11.3 kmh 30.08 in1018.6 mb 0.00 in0.0 mm 0.00 in0.0 mm 0.00 in0.0 mm
10:34 PM 34.3°F1.3°C 30.0°F-1.1°C 84% 6.0 mph ENE9.7 kmh ENE 12.0 mph19.3 kmh 30.07 in1018.3 mb 0.00 in0.0 mm 0.00 in0.0 mm 0.00 in0.0 mm
10:39 PM 34.3°F1.3°C 30.0°F-1.1°C 84% 8.0 mph E12.9 kmh E 12.0 mph19.3 kmh 30.07 in1018.3 mb 0.00 in0.0 mm 0.00 in0.0 mm 0.00 in0.0 mm
10:44 PM 34.5°F1.4°C 30.2°F-1.0°C 84% 6.0 mph ESE9.7 kmh ESE 13.0 mph20.9 kmh 30.07 in1018.3 mb 0.00 in0.0 mm 0.00 in0.0 mm 0.00 in0.0 mm
10:49 PM 34.5°F1.4°C 30.2°F-1.0°C 84% 5.0 mph SE8.0 kmh SE 8.0 mph12.9 kmh 30.07 in1018.3 mb 0.00 in0.0 mm 0.00 in0.0 mm 0.00 in0.0 mm
10:54 PM 34.5°F1.4°C 30.2°F-1.0°C 84% 8.0 mph ESE12.9 kmh ESE 16.0 mph25.7 kmh 30.07 in1018.3 mb 0.00 in0.0 mm 0.00 in0.0 mm 0.00 in0.0 mm
10:59 PM 34.5°F1.4°C 30.2°F-1.0°C 84% 8.0 mph ENE12.9 kmh ENE 14.0 mph22.5 kmh 30.06 in1017.9 mb 0.00 in0.0 mm 0.00 in0.0 mm 0.00 in0.0 mm
11:04 PM 34.5°F1.4°C 30.2°F-1.0°C 84% 7.0 mph E11.3 kmh E 11.0 mph17.7 kmh 30.06 in1017.9 mb 0.00 in0.0 mm 0.00 in0.0 mm 0.00 in0.0 mm
11:09 PM 34.5°F1.4°C 30.5°F-0.8°C 85% 4.0 mph SE6.4 kmh SE 6.0 mph9.7 kmh 30.06 in1017.9 mb 0.00 in0.0 mm 0.00 in0.0 mm 0.00 in0.0 mm
11:14 PM 34.5°F1.4°C 30.5°F-0.8°C 85% 4.0 mph E6.4 kmh E 7.0 mph11.3 kmh 30.06 in1017.9 mb 0.00 in0.0 mm 0.00 in0.0 mm 0.00 in0.0 mm
11:19 PM 34.5°F1.4°C 30.5°F-0.8°C 85% 5.0 mph ESE8.0 kmh ESE 10.0 mph16.1 kmh 30.06 in1017.9 mb 0.00 in0.0 mm 0.00 in0.0 mm 0.00 in0.0 mm
11:24 PM 34.5°F1.4°C 30.5°F-0.8°C 85% 5.0 mph E8.0 kmh E 10.0 mph16.1 kmh 30.06 in1017.9 mb 0.00 in0.0 mm 0.00 in0.0 mm 0.00 in0.0 mm
11:29 PM 34.3°F1.3°C 30.3°F-0.9°C 85% 5.0 mph E8.0 kmh E 8.0 mph12.9 kmh 30.06 in1017.9 mb 0.00 in0.0 mm 0.00 in0.0 mm 0.00 in0.0 mm
11:34 PM 34.3°F1.3°C 30.6°F-0.8°C 86% 6.0 mph E9.7 kmh E 11.0 mph17.7 kmh 30.06 in1017.9 mb 0.00 in0.0 mm 0.00 in0.0 mm 0.00 in0.0 mm
11:39 PM 34.3°F1.3°C 30.6°F-0.8°C 86% 4.0 mph SE6.4 kmh SE 7.0 mph11.3 kmh 30.05 in1017.6 mb 0.00 in0.0 mm 0.00 in0.0 mm 0.00 in0.0 mm
11:44 PM 34.3°F1.3°C 30.6°F-0.8°C 86% 4.0 mph E6.4 kmh E 7.0 mph11.3 kmh 30.05 in1017.6 mb 0.00 in0.0 mm 0.00 in0.0 mm 0.00 in0.0 mm
11:49 PM 34.3°F1.3°C 30.6°F-0.8°C 86% 4.0 mph E6.4 kmh E 7.0 mph11.3 kmh 30.05 in1017.6 mb 0.00 in0.0 mm 0.00 in0.0 mm 0.00 in0.0 mm
11:54 PM 34.2°F1.2°C 30.4°F-0.9°C 86% 5.0 mph E8.0 kmh E 9.0 mph14.5 kmh 30.05 in1017.6 mb 0.00 in0.0 mm 0.00 in0.0 mm 0.00 in0.0 mm
11:59 PM 34.2°F1.2°C 30.7°F-0.7°C 87% 3.0 mph ENE4.8 kmh ENE 5.0 mph8.0 kmh 30.04 in1017.3 mb 0.00 in0.0 mm 0.00 in0.0 mm 0.00 in0.0 mm